createdAt,value
2019-05-19T00:01:34.915Z,31.70
2019-05-19T00:04:04.417Z,31.60
2019-05-19T00:06:36.653Z,31.57
2019-05-19T00:09:06.499Z,33.40
2019-05-19T00:11:39.350Z,33.87
2019-05-19T00:14:09.597Z,32.30
2019-05-19T00:16:38.566Z,33.57
2019-05-19T00:19:07.517Z,33.47
2019-05-19T00:21:39.773Z,33.37
2019-05-19T00:24:09.305Z,31.80
2019-05-19T00:26:41.566Z,31.10
2019-05-19T00:29:13.055Z,31.73
2019-05-19T00:31:42.746Z,30.27
2019-05-19T00:34:12.052Z,31.20
2019-05-19T00:36:43.161Z,28.40
2019-05-19T00:39:12.350Z,29.60
2019-05-19T00:41:41.550Z,29.50
2019-05-19T00:44:11.129Z,29.93
2019-05-19T00:46:41.748Z,33.13
2019-05-19T00:49:12.520Z,32.17
2019-05-19T00:51:43.289Z,32.40
2019-05-19T00:54:12.390Z,31.37
2019-05-19T00:56:42.520Z,31.93
2019-05-19T00:59:13.887Z,31.17
2019-05-19T01:01:45.859Z,31.10
2019-05-19T01:04:16.835Z,31.83
2019-05-19T01:06:47.293Z,31.07
2019-05-19T01:09:17.344Z,32.20
2019-05-19T01:11:47.884Z,32.03
2019-05-19T01:14:17.377Z,30.90
2019-05-19T01:16:46.508Z,29.50
2019-05-19T01:19:16.349Z,31.27
2019-05-19T01:21:48.810Z,31.40
2019-05-19T01:24:18.808Z,30.17
2019-05-19T01:26:49.113Z,29.07
2019-05-19T01:29:18.183Z,28.97
2019-05-19T01:31:47.774Z,29.60
2019-05-19T01:34:16.893Z,31.43
2019-05-19T01:36:45.923Z,33.50
2019-05-19T01:39:14.858Z,31.87
2019-05-19T01:41:44.779Z,32.77
2019-05-19T01:44:14.007Z,33.90
2019-05-19T01:46:44.733Z,32.80
2019-05-19T01:49:14.229Z,33.57
2019-05-19T01:51:43.928Z,32.53
2019-05-19T01:54:16.625Z,31.73
2019-05-19T01:56:44.728Z,29.80
2019-05-19T01:59:15.158Z,30.50
2019-05-19T02:01:44.531Z,30.63
2019-05-19T02:04:13.508Z,31.17
2019-05-19T02:06:43.856Z,30.83
2019-05-19T02:09:13.221Z,31.63
2019-05-19T02:11:42.547Z,32.10
2019-05-19T02:14:12.342Z,31.53
2019-05-19T02:16:41.589Z,33.13
2019-05-19T02:19:11.066Z,30.43
2019-05-19T02:21:41.659Z,32.77
2019-05-19T02:24:18.189Z,30.10
2019-05-19T02:26:48.982Z,32.43
2019-05-19T02:29:19.942Z,32.43
2019-05-19T02:31:49.192Z,31.57
2019-05-19T02:34:19.504Z,32.50
2019-05-19T02:36:48.803Z,30.90
2019-05-19T02:39:18.341Z,31.43
2019-05-19T02:41:50.564Z,29.07
2019-05-19T02:44:21.060Z,29.83
2019-05-19T02:46:54.135Z,31.53
2019-05-19T02:49:30.651Z,31.33
2019-05-19T02:52:02.484Z,30.13
2019-05-19T02:54:35.461Z,31.17
2019-05-19T02:57:20.680Z,31.23
2019-05-19T02:59:50.358Z,29.20
2019-05-19T03:02:19.321Z,29.63
2019-05-19T03:04:53.061Z,29.27
2019-05-19T03:07:21.886Z,28.20
2019-05-19T03:12:26.962Z,28.93
2019-05-19T03:14:56.267Z,27.03
2019-05-19T03:17:25.573Z,27.83
2019-05-19T03:19:57.173Z,27.73
2019-05-19T03:22:28.314Z,28.17
2019-05-19T03:24:58.115Z,26.80
2019-05-19T03:27:28.559Z,29.17
2019-05-19T03:29:59.071Z,29.03
2019-05-19T03:32:29.583Z,28.17
2019-05-19T03:34:59.024Z,28.67
2019-05-19T03:37:27.960Z,29.93
2019-05-19T03:39:57.237Z,28.90
2019-05-19T03:42:26.417Z,30.80
2019-05-19T03:44:56.352Z,31.93
2019-05-19T03:47:25.386Z,32.53
2019-05-19T03:50:00.249Z,34.83
2019-05-19T03:52:30.886Z,32.90
2019-05-19T03:55:01.055Z,34.47
2019-05-19T03:57:34.844Z,32.67
2019-05-19T04:00:10.826Z,32.97
2019-05-19T04:02:40.027Z,32.47
2019-05-19T04:05:09.058Z,33.67
2019-05-19T04:07:38.182Z,35.00
2019-05-19T04:10:10.054Z,33.20
2019-05-19T04:12:39.413Z,33.63
2019-05-19T04:15:08.834Z,33.80
2019-05-19T04:17:37.912Z,35.43
2019-05-19T04:20:08.731Z,34.73
2019-05-19T04:22:38.179Z,32.00
2019-05-19T04:25:07.455Z,33.43
2019-05-19T04:27:36.889Z,33.20
2019-05-19T04:30:07.804Z,31.10
2019-05-19T04:32:36.784Z,31.37
2019-05-19T04:35:08.499Z,30.10
2019-05-19T04:37:38.040Z,29.87
2019-05-19T04:40:07.954Z,30.77
2019-05-19T04:42:37.050Z,29.53
2019-05-19T04:45:06.170Z,30.23
2019-05-19T04:47:35.451Z,31.37
2019-05-19T04:50:06.450Z,29.57
2019-05-19T04:52:36.114Z,30.33
2019-05-19T04:55:06.154Z,30.93
2019-05-19T04:57:37.213Z,30.33
2019-05-19T05:00:07.238Z,29.30
2019-05-19T05:02:36.160Z,29.47
2019-05-19T05:05:06.184Z,32.07
2019-05-19T05:07:36.233Z,30.93
2019-05-19T05:10:06.341Z,30.90
2019-05-19T05:12:35.196Z,29.73
2019-05-19T05:15:06.103Z,29.23
2019-05-19T05:17:35.289Z,28.77
2019-05-19T05:20:06.973Z,28.27
2019-05-19T05:22:35.911Z,29.77
2019-05-19T05:25:08.224Z,29.30
2019-05-19T05:27:37.225Z,28.83
2019-05-19T05:30:10.753Z,29.63
2019-05-19T05:32:39.770Z,30.20
2019-05-19T05:35:09.670Z,32.17
2019-05-19T05:37:38.815Z,26.87
2019-05-19T05:40:08.647Z,24.43
2019-05-19T05:42:37.583Z,25.30
2019-05-19T05:45:08.351Z,26.20
2019-05-19T05:47:37.421Z,24.73
2019-05-19T05:50:11.164Z,26.63
2019-05-19T05:52:40.036Z,24.33
2019-05-19T05:55:09.085Z,24.53
2019-05-19T05:57:39.470Z,22.33
2019-05-19T06:00:09.195Z,23.50
2019-05-19T06:02:38.186Z,23.20
2019-05-19T06:05:07.282Z,21.83
2019-05-19T06:07:36.164Z,22.80
2019-05-19T06:10:09.549Z,21.77
2019-05-19T06:12:38.656Z,27.03
2019-05-19T06:15:07.512Z,27.40
2019-05-19T06:20:08.777Z,23.97
2019-05-19T06:22:54.393Z,24.23
2019-05-19T06:25:09.934Z,24.80
2019-05-19T06:27:38.932Z,23.37
2019-05-19T06:30:09.052Z,24.27
2019-05-19T06:32:41.711Z,23.63
2019-05-19T06:35:10.972Z,23.93
2019-05-19T06:37:40.296Z,23.83
2019-05-19T06:40:09.856Z,23.13
2019-05-19T06:42:39.232Z,24.17
2019-05-19T06:45:08.532Z,24.43
2019-05-19T06:47:37.526Z,23.50
2019-05-19T06:50:10.354Z,24.87
2019-05-19T06:52:40.130Z,25.57
2019-05-19T06:55:10.027Z,25.60
2019-05-19T06:57:39.775Z,25.00
2019-05-19T07:00:10.539Z,24.93
2019-05-19T07:02:39.444Z,26.87
2019-05-19T07:05:08.924Z,28.40
2019-05-19T07:07:38.170Z,30.37
2019-05-19T07:10:10.300Z,30.37
2019-05-19T07:12:39.184Z,30.67
2019-05-19T07:15:09.573Z,32.87
2019-05-19T07:17:39.136Z,31.83
2019-05-19T07:20:10.210Z,33.60
2019-05-19T07:22:41.773Z,33.57
2019-05-19T07:25:11.936Z,33.53
2019-05-19T07:27:40.993Z,32.77
2019-05-19T07:30:12.915Z,32.83
2019-05-19T07:32:42.571Z,33.97
2019-05-19T07:35:11.709Z,33.67
2019-05-19T07:37:40.712Z,34.07
2019-05-19T07:40:10.176Z,32.10
2019-05-19T07:42:39.233Z,31.10
2019-05-19T07:45:08.711Z,32.63
2019-05-19T07:47:37.548Z,32.77
2019-05-19T07:50:06.945Z,32.77
2019-05-19T07:52:36.110Z,31.00
2019-05-19T07:55:07.295Z,34.37
2019-05-19T07:57:36.172Z,34.53
2019-05-19T08:00:08.445Z,31.93
2019-05-19T08:02:42.514Z,31.27
2019-05-19T08:05:12.500Z,30.33
2019-05-19T08:07:41.326Z,31.03
2019-05-19T08:10:10.570Z,27.60
2019-05-19T08:12:40.848Z,28.10
2019-05-19T08:15:10.224Z,29.00
2019-05-19T08:17:39.263Z,27.83
2019-05-19T08:20:11.055Z,28.03
2019-05-19T08:22:42.816Z,28.83
2019-05-19T08:25:12.187Z,27.90
2019-05-19T08:27:41.948Z,26.20
2019-05-19T08:30:11.444Z,26.47
2019-05-19T08:32:40.284Z,27.27
2019-05-19T08:35:09.095Z,27.10
2019-05-19T08:37:37.983Z,27.87
2019-05-19T08:40:07.925Z,27.00
2019-05-19T08:42:37.111Z,26.37
2019-05-19T08:45:07.902Z,26.97
2019-05-19T08:47:37.199Z,25.50
2019-05-19T08:50:07.609Z,24.57
2019-05-19T08:52:38.565Z,25.33
2019-05-19T08:55:08.755Z,25.23
2019-05-19T08:57:38.339Z,26.03
2019-05-19T09:00:08.788Z,24.33
2019-05-19T09:02:37.890Z,24.30
2019-05-19T09:05:07.363Z,23.07
2019-05-19T09:07:36.482Z,23.33
2019-05-19T09:10:07.717Z,22.60
2019-05-19T09:12:37.973Z,23.57
2019-05-19T09:15:07.913Z,23.73
2019-05-19T09:17:36.801Z,21.80
2019-05-19T09:20:07.287Z,20.60
2019-05-19T09:22:37.542Z,19.00
2019-05-19T09:25:07.983Z,20.50
2019-05-19T09:27:37.008Z,19.37
2019-05-19T09:30:10.877Z,18.13
2019-05-19T09:32:40.599Z,17.23
2019-05-19T09:35:09.627Z,16.80
2019-05-19T09:37:38.927Z,16.77
2019-05-19T09:40:11.863Z,17.30
2019-05-19T09:42:41.447Z,16.83
2019-05-19T09:45:11.643Z,16.73
2019-05-19T09:47:40.560Z,17.83
2019-05-19T09:50:09.997Z,16.63
2019-05-19T09:52:40.253Z,17.20
2019-05-19T09:55:10.654Z,16.37
2019-05-19T09:57:39.770Z,16.13
2019-05-19T10:00:10.199Z,17.70
2019-05-19T10:02:39.860Z,16.83
2019-05-19T10:05:09.372Z,18.83
2019-05-19T10:07:38.813Z,17.80
2019-05-19T10:10:15.210Z,18.50
2019-05-19T10:12:44.272Z,18.20
2019-05-19T10:15:14.486Z,19.37
2019-05-19T10:17:43.921Z,18.57
2019-05-19T10:20:15.610Z,18.40
2019-05-19T10:22:46.373Z,18.03
2019-05-19T10:25:22.061Z,19.30
2019-05-19T10:27:47.259Z,16.57
2019-05-19T10:30:18.520Z,17.87
2019-05-19T10:32:47.501Z,18.23
2019-05-19T10:35:17.914Z,16.50
2019-05-19T10:37:46.750Z,16.70
2019-05-19T10:40:16.810Z,16.10
2019-05-19T10:42:49.299Z,17.57
2019-05-19T10:45:18.834Z,15.90
2019-05-19T10:47:52.579Z,16.00
2019-05-19T10:50:28.873Z,15.80
2019-05-19T10:53:01.190Z,16.00
2019-05-19T10:55:36.697Z,15.67
2019-05-19T10:58:05.511Z,14.97
2019-05-19T11:00:40.003Z,16.73
2019-05-19T11:03:09.059Z,16.00
2019-05-19T11:05:37.968Z,15.47
2019-05-19T11:08:09.758Z,15.17
2019-05-19T11:10:38.715Z,16.63
2019-05-19T11:13:07.680Z,15.90
2019-05-19T11:15:47.380Z,16.33
2019-05-19T11:18:22.675Z,15.03
2019-05-19T11:20:52.140Z,15.03
2019-05-19T11:23:21.619Z,16.23
2019-05-19T11:25:51.792Z,15.40
2019-05-19T11:28:20.954Z,14.83
2019-05-19T11:30:50.499Z,14.17
2019-05-19T11:33:25.594Z,15.27
2019-05-19T11:35:54.501Z,16.13
2019-05-19T11:38:23.486Z,14.20
2019-05-19T11:43:42.126Z,14.03
2019-05-19T11:46:12.590Z,13.60
2019-05-19T11:48:46.292Z,12.37
2019-05-19T11:51:17.258Z,11.77
2019-05-19T11:53:51.964Z,12.23
2019-05-19T11:56:23.960Z,11.67
2019-05-19T11:58:54.499Z,12.20
2019-05-19T12:01:23.787Z,11.23
2019-05-19T12:03:55.464Z,11.73
2019-05-19T12:06:38.254Z,12.80
2019-05-19T12:08:55.979Z,12.17
2019-05-19T12:11:29.058Z,11.37
2019-05-19T12:13:58.065Z,13.27
2019-05-19T12:16:27.793Z,12.23
2019-05-19T12:19:01.268Z,12.83
2019-05-19T12:21:34.339Z,13.67
2019-05-19T12:24:06.972Z,12.93
2019-05-19T12:26:35.958Z,13.23
2019-05-19T12:29:05.417Z,13.83
2019-05-19T12:31:34.371Z,13.67
2019-05-19T12:34:03.682Z,14.47
2019-05-19T12:36:33.451Z,13.33
2019-05-19T12:39:02.526Z,13.90
2019-05-19T12:41:31.697Z,14.20
2019-05-19T12:44:00.754Z,13.37
2019-05-19T12:49:21.128Z,13.13
2019-05-19T12:51:53.403Z,13.47
2019-05-19T12:54:22.977Z,13.50
2019-05-19T12:57:11.080Z,14.27
2019-05-19T12:59:58.682Z,14.00
2019-05-19T13:02:34.119Z,13.33
2019-05-19T13:05:05.382Z,13.57
2019-05-19T13:07:35.289Z,13.10
2019-05-19T13:10:06.920Z,14.70
2019-05-19T13:12:36.420Z,15.57
2019-05-19T13:15:08.745Z,15.70
2019-05-19T13:17:37.849Z,16.30
2019-05-19T13:20:08.288Z,18.10
2019-05-19T13:22:37.380Z,18.60
2019-05-19T13:25:11.350Z,10.07
2019-05-19T13:27:40.609Z,12.57
2019-05-19T13:30:10.670Z,12.27
2019-05-19T13:32:41.660Z,11.07
2019-05-19T13:35:12.119Z,11.83
2019-05-19T13:37:41.894Z,11.20
2019-05-19T13:40:12.427Z,12.33
2019-05-19T13:42:41.362Z,9.57
2019-05-19T13:45:11.299Z,9.80
2019-05-19T13:47:53.559Z,10.90
2019-05-19T13:50:22.685Z,12.30
2019-05-19T13:52:51.775Z,12.77
2019-05-19T13:55:21.133Z,11.77
2019-05-19T13:57:50.120Z,14.43
2019-05-19T14:00:28.100Z,13.60
2019-05-19T14:02:57.227Z,13.27
2019-05-19T14:05:35.343Z,15.43
2019-05-19T14:08:04.303Z,15.90
2019-05-19T14:10:34.891Z,15.03
2019-05-19T14:13:03.949Z,15.83
2019-05-19T14:15:33.333Z,14.33
2019-05-19T14:18:02.223Z,13.80
2019-05-19T14:20:32.735Z,14.63
2019-05-19T14:23:02.227Z,13.00
2019-05-19T14:25:31.468Z,13.10
2019-05-19T14:28:00.525Z,12.93
2019-05-19T14:30:29.689Z,13.67
2019-05-19T14:32:59.238Z,12.37
2019-05-19T14:35:28.227Z,12.70
2019-05-19T14:37:57.384Z,12.37
2019-05-19T14:40:26.545Z,12.20
2019-05-19T14:42:56.957Z,11.60
2019-05-19T14:45:26.360Z,12.13
2019-05-19T14:47:55.202Z,11.23
2019-05-19T14:50:24.099Z,11.03
2019-05-19T14:52:52.966Z,11.87
2019-05-19T14:55:22.079Z,11.03
2019-05-19T14:57:50.928Z,11.73
2019-05-19T15:00:20.995Z,12.03
2019-05-19T15:02:49.887Z,10.67
2019-05-19T15:05:18.719Z,11.23
2019-05-19T15:07:47.704Z,12.03
2019-05-19T15:10:16.951Z,11.57
2019-05-19T15:12:45.813Z,12.40
2019-05-19T15:15:16.003Z,12.73
2019-05-19T15:17:44.934Z,13.37
2019-05-19T15:20:15.627Z,12.20
2019-05-19T15:22:44.737Z,12.57
2019-05-19T15:25:16.735Z,11.73
2019-05-19T15:27:59.271Z,12.97
2019-05-19T15:30:18.773Z,12.70
2019-05-19T15:32:48.248Z,12.37
2019-05-19T15:35:17.688Z,11.73
2019-05-19T15:37:48.958Z,12.70
2019-05-19T15:40:18.202Z,12.67
2019-05-19T15:42:47.757Z,12.90
2019-05-19T15:45:16.872Z,12.47
2019-05-19T15:47:45.853Z,12.17
2019-05-19T15:50:16.258Z,12.57
2019-05-19T15:52:45.297Z,12.53
2019-05-19T15:55:15.136Z,12.73
2019-05-19T15:57:44.176Z,12.50
2019-05-19T16:00:13.492Z,11.67
2019-05-19T16:02:42.827Z,12.33
2019-05-19T16:05:11.960Z,11.77
2019-05-19T16:07:41.081Z,11.60
2019-05-19T16:10:11.161Z,12.30
2019-05-19T16:12:41.226Z,12.03
2019-05-19T16:15:11.125Z,12.50
2019-05-19T16:17:40.108Z,11.83
2019-05-19T16:20:09.570Z,10.50
2019-05-19T16:22:38.675Z,10.13
2019-05-19T16:25:08.830Z,10.43
2019-05-19T16:27:37.870Z,9.27
2019-05-19T16:30:09.293Z,10.17
2019-05-19T16:32:40.272Z,9.43
2019-05-19T16:35:09.709Z,9.93
2019-05-19T16:37:38.677Z,10.00
2019-05-19T16:40:08.204Z,9.80
2019-05-19T16:42:37.210Z,9.90
2019-05-19T16:45:09.396Z,10.13
2019-05-19T16:47:38.439Z,10.67
2019-05-19T16:50:08.374Z,9.00
2019-05-19T16:52:39.139Z,9.23
2019-05-19T16:55:24.740Z,10.47
2019-05-19T16:57:55.501Z,10.17
2019-05-19T17:00:27.384Z,10.20
2019-05-19T17:02:56.493Z,10.77
2019-05-19T17:05:25.554Z,10.40
2019-05-19T17:07:54.666Z,10.53
2019-05-19T17:10:23.586Z,11.37
2019-05-19T17:12:55.691Z,11.20
2019-05-19T17:15:25.078Z,11.47
2019-05-19T17:17:54.119Z,11.03
2019-05-19T17:20:23.301Z,10.77
2019-05-19T17:22:52.378Z,12.00
2019-05-19T17:25:23.147Z,13.33
2019-05-19T17:27:52.138Z,13.93
2019-05-19T17:30:21.670Z,12.73
2019-05-19T17:32:51.010Z,13.93
2019-05-19T17:35:20.084Z,14.77
2019-05-19T17:37:49.005Z,14.57
2019-05-19T17:40:19.156Z,13.93
2019-05-19T17:42:49.458Z,15.23
2019-05-19T17:45:19.496Z,14.87
2019-05-19T17:47:48.427Z,14.97
2019-05-19T17:50:20.363Z,15.27
2019-05-19T17:52:49.321Z,15.13
2019-05-19T17:55:18.321Z,14.90
2019-05-19T17:57:47.880Z,14.70
2019-05-19T18:00:23.384Z,15.30
2019-05-19T18:02:52.655Z,15.30
2019-05-19T18:05:21.605Z,14.27
2019-05-19T18:07:50.644Z,14.47
2019-05-19T18:10:19.790Z,14.87
2019-05-19T18:12:48.983Z,14.50
2019-05-19T18:15:17.885Z,14.27
2019-05-19T18:17:47.039Z,13.77
2019-05-19T18:20:23.260Z,14.80
2019-05-19T18:22:47.096Z,13.77
2019-05-19T18:25:17.384Z,14.63
2019-05-19T18:27:46.524Z,16.53
2019-05-19T18:30:16.198Z,16.77
2019-05-19T18:32:45.390Z,16.63
2019-05-19T18:35:15.057Z,16.57
2019-05-19T18:37:44.170Z,17.80
2019-05-19T18:40:13.107Z,18.33
2019-05-19T18:42:42.113Z,18.33
2019-05-19T18:45:11.300Z,17.93
2019-05-19T18:47:40.234Z,18.23
2019-05-19T18:50:09.740Z,18.77
2019-05-19T18:52:38.637Z,19.43
2019-05-19T18:55:08.426Z,19.13
2019-05-19T18:57:37.579Z,19.97
2019-05-19T19:00:07.205Z,25.57
2019-05-19T19:02:36.430Z,27.37
2019-05-19T19:05:07.997Z,26.53
2019-05-19T19:07:52.125Z,24.80
2019-05-19T19:10:21.659Z,23.83
2019-05-19T19:12:50.853Z,23.77
2019-05-19T19:15:20.421Z,22.00
2019-05-19T19:17:49.451Z,17.03
2019-05-19T19:20:21.097Z,16.90
2019-05-19T19:22:50.182Z,15.90
2019-05-19T19:25:22.194Z,12.37
2019-05-19T19:27:54.430Z,12.73
2019-05-19T19:30:26.691Z,12.47
2019-05-19T19:32:58.485Z,12.77
2019-05-19T19:35:38.837Z,13.20
2019-05-19T19:38:05.085Z,14.60
2019-05-19T19:40:36.771Z,15.93
2019-05-19T19:43:06.129Z,15.03
2019-05-19T19:45:36.669Z,15.53
2019-05-19T19:48:07.243Z,15.70
2019-05-19T19:50:40.257Z,16.57
2019-05-19T19:53:09.384Z,16.90
2019-05-19T19:55:38.939Z,16.23
2019-05-19T19:58:11.335Z,17.20
2019-05-19T20:00:43.958Z,16.50
2019-05-19T20:03:16.902Z,16.43
2019-05-19T20:05:47.406Z,15.33
2019-05-19T20:08:16.502Z,13.60
2019-05-19T20:10:49.422Z,13.77
2019-05-19T20:13:19.618Z,15.33
2019-05-19T20:15:49.478Z,16.27
2019-05-19T20:18:19.116Z,16.07
2019-05-19T20:20:51.496Z,15.73
2019-05-19T20:23:20.493Z,16.63
2019-05-19T20:25:50.349Z,16.47
2019-05-19T20:28:19.702Z,17.83
2019-05-19T20:30:50.414Z,18.30
2019-05-19T20:33:19.304Z,19.37
2019-05-19T20:35:48.176Z,19.80
2019-05-19T20:38:17.245Z,20.10
2019-05-19T20:40:46.230Z,20.60
2019-05-19T20:43:15.353Z,20.93
2019-05-19T20:45:44.583Z,19.87
2019-05-19T20:48:15.708Z,22.30
2019-05-19T20:50:45.113Z,20.93
2019-05-19T20:53:15.463Z,21.37
2019-05-19T20:55:46.360Z,21.70
2019-05-19T20:58:15.943Z,21.30
2019-05-19T21:00:50.350Z,22.17
2019-05-19T21:03:17.060Z,21.77
2019-05-19T21:05:48.091Z,23.43
2019-05-19T21:08:17.304Z,22.13
2019-05-19T21:10:46.665Z,21.73
2019-05-19T21:13:16.096Z,22.20
2019-05-19T21:15:46.985Z,21.23
2019-05-19T21:18:17.537Z,20.70
2019-05-19T21:20:48.953Z,20.53
2019-05-19T21:23:17.060Z,21.77
2019-05-19T21:25:47.504Z,21.70
2019-05-19T21:28:18.255Z,20.23
2019-05-19T21:30:47.294Z,20.53
2019-05-19T21:33:17.794Z,20.27
2019-05-19T21:35:48.070Z,20.93
2019-05-19T21:38:17.333Z,20.00
2019-05-19T21:40:46.743Z,19.97
2019-05-19T21:43:15.984Z,21.30
2019-05-19T21:45:44.998Z,20.67
2019-05-19T21:48:14.015Z,20.57
2019-05-19T21:50:43.494Z,21.17
2019-05-19T21:53:12.824Z,20.73
2019-05-19T21:55:41.910Z,20.50
2019-05-19T21:58:11.170Z,20.23
2019-05-19T22:00:42.756Z,21.33
2019-05-19T22:03:13.603Z,19.57
2019-05-19T22:05:52.953Z,19.80
2019-05-19T22:08:18.927Z,20.93
2019-05-19T22:10:48.682Z,20.97
2019-05-19T22:13:17.580Z,22.00
2019-05-19T22:15:47.573Z,21.83
2019-05-19T22:18:16.583Z,21.57
2019-05-19T22:20:46.658Z,21.43
2019-05-19T22:23:15.672Z,23.27
2019-05-19T22:25:44.521Z,24.53
2019-05-19T22:28:13.536Z,23.37
2019-05-19T22:30:43.457Z,23.13
2019-05-19T22:33:12.276Z,23.73
2019-05-19T22:35:41.136Z,24.30
2019-05-19T22:38:11.616Z,24.93
2019-05-19T22:40:40.688Z,24.20
2019-05-19T22:43:10.001Z,23.37
2019-05-19T22:45:38.801Z,25.33
2019-05-19T22:48:07.801Z,26.00
2019-05-19T22:50:36.986Z,24.67
2019-05-19T22:53:05.871Z,27.73
2019-05-19T22:55:34.918Z,27.40
2019-05-19T22:58:03.997Z,25.43
2019-05-19T23:00:32.893Z,26.17
2019-05-19T23:03:04.673Z,26.77
2019-05-19T23:05:35.218Z,24.83
2019-05-19T23:08:04.342Z,25.27
2019-05-19T23:10:33.522Z,23.53
2019-05-19T23:13:02.428Z,22.03
2019-05-19T23:15:32.274Z,21.90
2019-05-19T23:18:02.813Z,22.97
2019-05-19T23:20:32.223Z,21.77
2019-05-19T23:23:02.017Z,22.20
2019-05-19T23:25:31.533Z,22.00
2019-05-19T23:28:02.188Z,21.60
2019-05-19T23:30:31.693Z,22.10
2019-05-19T23:33:02.062Z,24.17
2019-05-19T23:35:31.603Z,22.70
2019-05-19T23:38:02.448Z,22.90
2019-05-19T23:40:32.852Z,22.83
2019-05-19T23:43:02.143Z,22.17
2019-05-19T23:45:31.778Z,23.67
2019-05-19T23:48:01.210Z,21.80
2019-05-19T23:50:30.334Z,23.57
2019-05-19T23:52:59.644Z,24.30
2019-05-19T23:55:29.990Z,24.53
2019-05-19T23:58:00.373Z,25.47
